createdAt,value
2023-01-29T00:02:33.233Z,102248.47
2023-01-29T00:05:27.417Z,102250.09
2023-01-29T00:08:13.484Z,102254.97
2023-01-29T00:11:06.807Z,102249.56
2023-01-29T00:13:53.330Z,102245.38
2023-01-29T00:16:38.587Z,102246.25
2023-01-29T00:19:23.300Z,102241.94
2023-01-29T00:22:08.199Z,102235.88
2023-01-29T00:24:53.494Z,102232.78
2023-01-29T00:27:38.340Z,102229.50
2023-01-29T00:30:23.732Z,102227.63
2023-01-29T00:33:08.761Z,102217.53
2023-01-29T00:35:54.000Z,102221.38
2023-01-29T00:38:39.024Z,102217.75
2023-01-29T00:41:46.418Z,102218.50
2023-01-29T00:44:50.156Z,102223.63
2023-01-29T00:47:35.504Z,102220.38
2023-01-29T00:50:22.067Z,102222.97
2023-01-29T00:53:07.261Z,102226.50
2023-01-29T00:55:52.136Z,102224.06
2023-01-29T00:58:36.959Z,102222.59
2023-01-29T01:01:42.646Z,102213.00
2023-01-29T01:04:27.632Z,102211.19
2023-01-29T01:10:16.124Z,102223.75
2023-01-29T01:13:07.669Z,102219.66
2023-01-29T01:15:52.836Z,102210.56
2023-01-29T01:18:38.541Z,102205.34
2023-01-29T01:21:23.803Z,102194.59
2023-01-29T01:24:08.694Z,102196.50
2023-01-29T01:26:53.834Z,102197.50
2023-01-29T01:29:38.966Z,102183.34
2023-01-29T01:32:24.291Z,102193.19
2023-01-29T01:35:11.027Z,102186.63
2023-01-29T01:37:56.363Z,102188.19
2023-01-29T01:40:45.675Z,102187.66
2023-01-29T01:43:48.690Z,102181.59
2023-01-29T01:46:37.740Z,102174.97
2023-01-29T01:49:24.307Z,102177.31
2023-01-29T01:52:10.707Z,102172.69
2023-01-29T01:54:56.118Z,102178.41
2023-01-29T01:57:43.834Z,102176.97
2023-01-29T02:00:28.791Z,102172.91
2023-01-29T02:03:32.633Z,102176.72
2023-01-29T02:06:36.581Z,102180.53
2023-01-29T02:09:35.823Z,102187.47
2023-01-29T02:12:21.482Z,102183.81
2023-01-29T02:15:07.622Z,102176.94
2023-01-29T02:17:52.727Z,102190.22
2023-01-29T02:20:41.709Z,102183.34
2023-01-29T02:23:57.699Z,102192.91
2023-01-29T02:27:09.700Z,102191.44
2023-01-29T02:30:08.320Z,102187.03
2023-01-29T02:33:07.370Z,102193.06
2023-01-29T02:35:55.625Z,102194.66
2023-01-29T02:39:01.581Z,102203.47
2023-01-29T02:41:55.295Z,102211.22
2023-01-29T02:44:51.925Z,102213.91
2023-01-29T02:47:39.943Z,102216.22
2023-01-29T02:50:42.891Z,102217.22
2023-01-29T02:53:38.448Z,102215.59
2023-01-29T02:56:40.243Z,102211.03
2023-01-29T02:59:33.461Z,102210.00
2023-01-29T03:02:59.940Z,102198.88
2023-01-29T03:06:08.801Z,102200.63
2023-01-29T03:08:58.983Z,102199.75
2023-01-29T03:11:51.482Z,102193.63
2023-01-29T03:14:58.362Z,102192.41
2023-01-29T03:17:56.507Z,102188.78
2023-01-29T03:20:49.751Z,102193.63
2023-01-29T03:23:55.611Z,102191.94
2023-01-29T03:27:01.372Z,102194.50
2023-01-29T03:30:07.624Z,102187.53
2023-01-29T03:32:54.500Z,102191.53
2023-01-29T03:35:48.309Z,102195.50
2023-01-29T03:38:33.855Z,102186.22
2023-01-29T03:41:54.809Z,102181.72
2023-01-29T03:45:05.585Z,102170.81
2023-01-29T03:48:35.452Z,102153.97
2023-01-29T03:51:29.258Z,102147.03
2023-01-29T03:54:40.739Z,102142.66
2023-01-29T03:57:43.007Z,102134.34
2023-01-29T04:00:54.312Z,102138.41
2023-01-29T04:03:53.840Z,102126.75
2023-01-29T04:06:43.845Z,102126.09
2023-01-29T04:09:33.936Z,102128.66
2023-01-29T04:12:24.855Z,102120.97
2023-01-29T04:15:17.012Z,102125.81
2023-01-29T04:18:02.590Z,102123.66
2023-01-29T04:20:48.024Z,102114.75
2023-01-29T04:23:33.089Z,102115.41
2023-01-29T04:26:21.921Z,102106.47
2023-01-29T04:29:23.685Z,102091.28
2023-01-29T04:32:22.747Z,102094.59
2023-01-29T04:35:18.081Z,102090.56
2023-01-29T04:38:17.494Z,102094.94
2023-01-29T04:41:07.682Z,102082.94
2023-01-29T04:44:05.587Z,102070.28
2023-01-29T04:47:16.138Z,102065.91
2023-01-29T04:50:21.014Z,102060.50
2023-01-29T04:53:12.354Z,102052.81
2023-01-29T04:56:10.550Z,102051.22
2023-01-29T04:59:02.432Z,102047.69
2023-01-29T05:01:48.942Z,102050.06
2023-01-29T05:04:35.498Z,102047.28
2023-01-29T05:07:22.361Z,102050.41
2023-01-29T05:10:10.108Z,102049.72
2023-01-29T05:13:02.715Z,102048.97
2023-01-29T05:15:54.048Z,102047.84
2023-01-29T05:18:39.926Z,102046.06
2023-01-29T05:21:26.786Z,102047.03
2023-01-29T05:24:15.965Z,102052.97
2023-01-29T05:27:20.014Z,102049.38
2023-01-29T05:30:06.252Z,102064.28
2023-01-29T05:32:51.760Z,102051.47
2023-01-29T05:35:36.714Z,102057.94
2023-01-29T05:38:23.173Z,102066.25
2023-01-29T05:41:08.195Z,102061.94
2023-01-29T05:43:53.840Z,102063.34
2023-01-29T05:46:39.286Z,102071.03
2023-01-29T05:49:24.710Z,102068.88
2023-01-29T05:52:09.442Z,102071.69
2023-01-29T05:54:55.305Z,102080.28
2023-01-29T05:57:41.577Z,102090.22
2023-01-29T06:00:26.594Z,102105.59
2023-01-29T06:03:11.636Z,102108.00
2023-01-29T06:05:56.839Z,102114.50
2023-01-29T06:08:42.071Z,102113.56
2023-01-29T06:11:27.239Z,102103.97
2023-01-29T06:14:12.873Z,102096.28
2023-01-29T06:16:57.956Z,102097.38
2023-01-29T06:19:43.084Z,102092.16
2023-01-29T06:22:28.139Z,102093.16
2023-01-29T06:25:13.601Z,102095.59
2023-01-29T06:27:59.620Z,102088.56
2023-01-29T06:30:45.911Z,102078.25
2023-01-29T06:33:31.007Z,102084.47
2023-01-29T06:36:16.563Z,102075.09
2023-01-29T06:39:01.701Z,102074.00
2023-01-29T06:41:46.946Z,102076.47
2023-01-29T06:44:31.724Z,102069.00
2023-01-29T06:47:16.851Z,102069.63
2023-01-29T06:50:02.206Z,102078.38
2023-01-29T06:52:47.304Z,102085.13
2023-01-29T06:55:32.155Z,102087.03
2023-01-29T06:58:17.199Z,102070.28
2023-01-29T07:01:06.748Z,102074.75
2023-01-29T07:03:51.902Z,102075.91
2023-01-29T07:06:36.872Z,102105.94
2023-01-29T07:09:22.024Z,102122.94
2023-01-29T07:12:07.455Z,102134.22
2023-01-29T07:14:52.319Z,102124.34
2023-01-29T07:17:37.174Z,102117.59
2023-01-29T07:20:22.002Z,102115.91
2023-01-29T07:23:10.618Z,102093.91
2023-01-29T07:25:55.804Z,102086.16
2023-01-29T07:28:41.005Z,102090.41
2023-01-29T07:31:26.464Z,102092.97
2023-01-29T07:34:11.311Z,102085.81
2023-01-29T07:36:57.089Z,102078.03
2023-01-29T07:39:41.828Z,102082.34
2023-01-29T07:42:27.250Z,102085.19
2023-01-29T07:45:13.596Z,102066.66
2023-01-29T07:47:58.595Z,102066.41
2023-01-29T07:50:43.993Z,102060.31
2023-01-29T07:53:29.613Z,102054.09
2023-01-29T07:56:14.945Z,102042.75
2023-01-29T07:59:00.148Z,102040.19
2023-01-29T08:01:46.044Z,102046.13
2023-01-29T08:04:32.031Z,102055.78
2023-01-29T08:07:16.783Z,102050.31
2023-01-29T08:10:02.080Z,102044.38
2023-01-29T08:12:46.714Z,102039.63
2023-01-29T08:15:32.584Z,102035.44
2023-01-29T08:18:17.536Z,102042.94
2023-01-29T08:21:02.823Z,102041.13
2023-01-29T08:23:47.951Z,102041.25
2023-01-29T08:26:33.294Z,102041.25
2023-01-29T08:29:18.306Z,102041.56
2023-01-29T08:32:03.818Z,102031.38
2023-01-29T08:34:49.045Z,102033.94
2023-01-29T08:37:36.331Z,102030.53
2023-01-29T08:40:21.856Z,102030.75
2023-01-29T08:43:09.495Z,102030.09
2023-01-29T08:45:55.184Z,102034.34
2023-01-29T08:48:40.123Z,102017.63
2023-01-29T08:51:26.262Z,102003.19
2023-01-29T08:54:11.027Z,102004.56
2023-01-29T08:56:56.411Z,102008.94
2023-01-29T08:59:41.218Z,102002.31
2023-01-29T09:02:26.372Z,101997.19
2023-01-29T09:05:11.626Z,102001.66
2023-01-29T09:08:00.097Z,102000.31
2023-01-29T09:10:45.427Z,101991.38
2023-01-29T09:13:30.627Z,101996.78
2023-01-29T09:16:15.549Z,102013.69
2023-01-29T09:19:01.021Z,102001.91
2023-01-29T09:21:46.134Z,101995.03
2023-01-29T09:24:32.524Z,102000.00
2023-01-29T09:27:17.843Z,101991.16
2023-01-29T09:30:04.714Z,102002.06
2023-01-29T09:32:53.748Z,102002.94
2023-01-29T09:35:43.578Z,102006.44
2023-01-29T09:38:28.469Z,102008.84
2023-01-29T09:41:30.038Z,102012.78
2023-01-29T09:44:29.097Z,102016.28
2023-01-29T09:47:17.331Z,102006.31
2023-01-29T09:50:18.398Z,102016.69
2023-01-29T09:53:30.524Z,102002.06
2023-01-29T09:56:21.461Z,102003.03
2023-01-29T09:59:12.775Z,102004.56
2023-01-29T10:02:29.841Z,101990.78
2023-01-29T10:05:30.603Z,101982.75
2023-01-29T10:08:33.242Z,101979.94
2023-01-29T10:11:58.140Z,101976.63
2023-01-29T10:14:49.578Z,101974.22
2023-01-29T10:17:43.523Z,101976.78
2023-01-29T10:20:37.072Z,101979.41
2023-01-29T10:23:27.691Z,101972.78
2023-01-29T10:26:13.423Z,101961.44
2023-01-29T10:29:01.234Z,101961.63
2023-01-29T10:31:50.966Z,101962.81
2023-01-29T10:35:00.140Z,101949.97
2023-01-29T10:37:45.682Z,101950.31
2023-01-29T10:40:49.708Z,101950.31
2023-01-29T10:43:54.363Z,101945.13
2023-01-29T10:47:13.757Z,101938.53
2023-01-29T10:50:21.846Z,101932.72
2023-01-29T10:53:28.786Z,101915.56
2023-01-29T10:56:45.259Z,101912.50
2023-01-29T10:59:39.280Z,101904.69
2023-01-29T11:02:24.539Z,101906.53
2023-01-29T11:05:38.899Z,101908.19
2023-01-29T11:08:38.537Z,101905.66
2023-01-29T11:11:56.672Z,101897.13
2023-01-29T11:14:51.592Z,101899.75
2023-01-29T11:17:38.545Z,101902.25
2023-01-29T11:20:28.577Z,101897.94
2023-01-29T11:23:26.865Z,101885.91
2023-01-29T11:26:13.754Z,101876.56
2023-01-29T11:28:59.235Z,101877.75
2023-01-29T11:31:44.141Z,101874.00
2023-01-29T11:34:31.472Z,101871.31
2023-01-29T11:37:16.863Z,101867.16
2023-01-29T11:40:02.594Z,101859.25
2023-01-29T11:42:50.783Z,101849.28
2023-01-29T11:45:39.636Z,101841.53
2023-01-29T11:48:37.956Z,101839.00
2023-01-29T11:51:29.050Z,101829.50
2023-01-29T11:54:20.040Z,101835.66
2023-01-29T11:57:05.630Z,101832.06
2023-01-29T11:59:52.496Z,101831.38
2023-01-29T12:02:43.538Z,101831.38
2023-01-29T12:05:28.717Z,101835.88
2023-01-29T12:08:18.608Z,101834.25
2023-01-29T12:11:24.900Z,101825.34
2023-01-29T12:14:33.249Z,101828.84
2023-01-29T12:17:26.608Z,101821.19
2023-01-29T12:20:17.300Z,101822.06
2023-01-29T12:23:21.455Z,101809.25
2023-01-29T12:26:08.867Z,101810.69
2023-01-29T12:29:21.907Z,101813.41
2023-01-29T12:32:45.026Z,101811.94
2023-01-29T12:35:40.261Z,101812.34
2023-01-29T12:38:26.726Z,101801.19
2023-01-29T12:41:29.661Z,101790.06
2023-01-29T12:44:23.364Z,101799.66
2023-01-29T12:47:17.016Z,101804.78
2023-01-29T12:50:09.546Z,101788.50
2023-01-29T12:53:20.673Z,101790.41
2023-01-29T12:56:14.336Z,101782.75
2023-01-29T12:59:05.424Z,101772.34
2023-01-29T13:01:56.568Z,101766.34
2023-01-29T13:04:53.840Z,101769.00
2023-01-29T13:07:48.268Z,101764.66
2023-01-29T13:10:42.850Z,101757.97
2023-01-29T13:13:36.621Z,101758.03
2023-01-29T13:16:30.722Z,101745.25
2023-01-29T13:19:35.947Z,101748.53
2023-01-29T13:22:32.818Z,101739.19
2023-01-29T13:25:22.503Z,101737.44
2023-01-29T13:28:17.863Z,101730.56
2023-01-29T13:31:34.739Z,101726.41
2023-01-29T13:34:32.767Z,101716.09
2023-01-29T13:37:30.113Z,101708.50
2023-01-29T13:40:20.773Z,101703.44
2023-01-29T13:43:09.481Z,101703.56
2023-01-29T13:45:54.927Z,101686.78
2023-01-29T13:48:48.498Z,101704.06
2023-01-29T13:51:37.853Z,101688.66
2023-01-29T13:54:25.943Z,101683.69
2023-01-29T13:57:55.408Z,101687.88
2023-01-29T14:00:43.648Z,101682.66
2023-01-29T14:03:35.925Z,101675.66
2023-01-29T14:06:43.359Z,101672.06
2023-01-29T14:09:37.493Z,101662.59
2023-01-29T14:12:26.139Z,101660.91
2023-01-29T14:15:22.602Z,101668.53
2023-01-29T14:18:20.227Z,101659.16
2023-01-29T14:21:15.246Z,101669.28
2023-01-29T14:24:16.670Z,101668.69
2023-01-29T14:27:03.898Z,101662.53
2023-01-29T14:33:03.042Z,101656.53
2023-01-29T14:35:56.483Z,101656.66
2023-01-29T14:38:48.535Z,101653.88
2023-01-29T14:42:21.747Z,101644.56
2023-01-29T14:45:32.796Z,101646.91
2023-01-29T14:48:42.318Z,101642.50
2023-01-29T14:51:40.612Z,101646.81
2023-01-29T14:54:30.954Z,101643.31
2023-01-29T14:57:21.303Z,101632.97
2023-01-29T15:00:28.542Z,101627.78
2023-01-29T15:03:20.129Z,101624.13
2023-01-29T15:06:08.196Z,101627.53
2023-01-29T15:09:05.501Z,101619.97
2023-01-29T15:12:16.836Z,101630.19
2023-01-29T15:15:18.295Z,101638.00
2023-01-29T15:18:09.093Z,101630.13
2023-01-29T15:21:12.076Z,101629.41
2023-01-29T15:24:07.667Z,101625.03
2023-01-29T15:26:54.473Z,101630.13
2023-01-29T15:29:41.511Z,101617.31
2023-01-29T15:32:31.272Z,101617.25
2023-01-29T15:35:28.787Z,101613.00
2023-01-29T15:38:19.257Z,101611.91
2023-01-29T15:41:16.124Z,101608.63
2023-01-29T15:44:02.960Z,101598.34
2023-01-29T15:46:56.509Z,101598.13
2023-01-29T15:49:43.190Z,101592.31
2023-01-29T15:52:36.119Z,101596.41
2023-01-29T15:55:23.680Z,101591.31
2023-01-29T15:58:17.212Z,101585.16
2023-01-29T16:01:03.492Z,101575.84
2023-01-29T16:03:50.484Z,101579.25
2023-01-29T16:06:39.699Z,101579.94
2023-01-29T16:09:26.528Z,101580.91
2023-01-29T16:12:12.998Z,101583.50
2023-01-29T16:15:02.694Z,101582.38
2023-01-29T16:17:47.714Z,101567.78
2023-01-29T16:20:50.124Z,101565.44
2023-01-29T16:23:43.697Z,101565.44
2023-01-29T16:26:33.102Z,101565.28
2023-01-29T16:29:25.547Z,101558.41
2023-01-29T16:32:13.650Z,101559.13
2023-01-29T16:35:00.040Z,101539.91
2023-01-29T16:37:50.580Z,101539.00
2023-01-29T16:40:38.767Z,101545.59
2023-01-29T16:43:45.943Z,101541.31
2023-01-29T16:46:51.115Z,101531.75
2023-01-29T16:49:39.288Z,101518.00
2023-01-29T16:52:34.274Z,101516.28
2023-01-29T16:55:21.853Z,101510.34
2023-01-29T16:58:15.879Z,101500.16
2023-01-29T17:01:11.124Z,101502.59
2023-01-29T17:04:08.472Z,101493.16
2023-01-29T17:06:59.436Z,101490.63
2023-01-29T17:09:46.300Z,101483.03
2023-01-29T17:12:33.154Z,101483.94
2023-01-29T17:15:34.303Z,101482.16
2023-01-29T17:18:23.271Z,101476.91
2023-01-29T17:21:10.082Z,101471.06
2023-01-29T17:23:55.326Z,101467.69
2023-01-29T17:26:40.608Z,101473.69
2023-01-29T17:29:30.251Z,101462.59
2023-01-29T17:32:19.146Z,101460.06
2023-01-29T17:35:06.383Z,101455.88
2023-01-29T17:37:52.551Z,101463.69
2023-01-29T17:40:47.105Z,101455.81
2023-01-29T17:43:32.075Z,101456.75
2023-01-29T17:46:20.986Z,101458.53
2023-01-29T17:49:27.974Z,101454.31
2023-01-29T17:52:15.115Z,101457.03
2023-01-29T17:55:00.156Z,101462.06
2023-01-29T17:57:45.886Z,101450.00
2023-01-29T18:00:34.763Z,101451.91
2023-01-29T18:03:20.417Z,101450.16
2023-01-29T18:06:14.694Z,101447.59
2023-01-29T18:09:00.380Z,101426.06
2023-01-29T18:11:47.528Z,101425.97
2023-01-29T18:14:34.983Z,101407.16
2023-01-29T18:17:24.959Z,101404.56
2023-01-29T18:20:21.616Z,101398.44
2023-01-29T18:23:08.024Z,101405.44
2023-01-29T18:25:57.512Z,101395.19
2023-01-29T18:28:44.690Z,101388.31
2023-01-29T18:31:29.833Z,101372.94
2023-01-29T18:34:15.003Z,101373.56
2023-01-29T18:37:01.007Z,101353.97
2023-01-29T18:39:47.501Z,101341.13
2023-01-29T18:42:36.205Z,101350.41
2023-01-29T18:45:21.932Z,101341.88
2023-01-29T18:48:07.783Z,101346.34
2023-01-29T18:50:54.784Z,101353.34
2023-01-29T18:53:47.636Z,101351.59
2023-01-29T18:56:32.721Z,101339.72
2023-01-29T18:59:25.105Z,101343.09
2023-01-29T19:02:15.654Z,101345.72
2023-01-29T19:05:00.848Z,101352.59
2023-01-29T19:07:46.840Z,101346.63
2023-01-29T19:10:35.285Z,101343.19
2023-01-29T19:13:21.693Z,101343.22
2023-01-29T19:16:14.875Z,101336.47
2023-01-29T19:19:00.228Z,101326.97
2023-01-29T19:21:46.952Z,101316.81
2023-01-29T19:24:36.198Z,101310.84
2023-01-29T19:27:21.947Z,101316.66
2023-01-29T19:30:11.504Z,101299.66
2023-01-29T19:32:56.646Z,101291.06
2023-01-29T19:35:44.906Z,101272.22
2023-01-29T19:38:33.314Z,101267.16
2023-01-29T19:41:20.999Z,101267.16
2023-01-29T19:44:10.619Z,101264.53
2023-01-29T19:46:58.333Z,101256.94
2023-01-29T19:49:44.871Z,101247.50
2023-01-29T19:52:50.133Z,101232.09
2023-01-29T19:55:36.200Z,101221.06
2023-01-29T19:58:21.424Z,101226.16
2023-01-29T20:01:14.581Z,101213.34
2023-01-29T20:04:01.712Z,101201.41
2023-01-29T20:06:48.238Z,101207.50
2023-01-29T20:09:37.303Z,101212.66
2023-01-29T20:12:22.610Z,101198.13
2023-01-29T20:15:08.821Z,101193.81
2023-01-29T20:17:56.692Z,101183.44
2023-01-29T20:20:50.212Z,101173.16
2023-01-29T20:23:38.708Z,101175.84
2023-01-29T20:26:25.596Z,101168.13
2023-01-29T20:29:13.061Z,101166.38
2023-01-29T20:32:02.891Z,101164.69
2023-01-29T20:34:54.662Z,101162.00
2023-01-29T20:37:41.539Z,101159.41
2023-01-29T20:40:29.476Z,101147.47
2023-01-29T20:43:14.337Z,101145.06
2023-01-29T20:46:05.644Z,101128.72
2023-01-29T20:48:53.164Z,101132.13
2023-01-29T20:51:40.546Z,101121.94
2023-01-29T20:54:25.804Z,101123.63
2023-01-29T20:57:12.028Z,101100.66
2023-01-29T20:59:57.228Z,101107.34
2023-01-29T21:02:52.238Z,101108.31
2023-01-29T21:05:37.724Z,101103.25
2023-01-29T21:08:23.794Z,101100.50
2023-01-29T21:11:09.784Z,101101.41
2023-01-29T21:13:57.587Z,101088.47
2023-01-29T21:16:45.944Z,101092.84
2023-01-29T21:19:31.279Z,101096.19
2023-01-29T21:22:16.839Z,101092.03
2023-01-29T21:25:04.839Z,101091.19
2023-01-29T21:27:54.044Z,101092.13
2023-01-29T21:30:39.600Z,101103.31
2023-01-29T21:33:25.018Z,101089.56
2023-01-29T21:36:12.350Z,101092.97
2023-01-29T21:38:59.833Z,101094.81
2023-01-29T21:42:06.069Z,101080.13
2023-01-29T21:44:50.983Z,101075.09
2023-01-29T21:47:35.772Z,101063.94
2023-01-29T21:50:20.879Z,101055.31
2023-01-29T21:53:06.554Z,101052.75
2023-01-29T21:55:51.678Z,101063.09
2023-01-29T21:58:36.916Z,101057.94
2023-01-29T22:01:37.730Z,101056.34
2023-01-29T22:04:24.667Z,101049.41
2023-01-29T22:07:13.069Z,101046.84
2023-01-29T22:09:57.826Z,101036.53
2023-01-29T22:12:44.417Z,101028.88
2023-01-29T22:15:29.638Z,101046.03
2023-01-29T22:18:14.507Z,101045.13
2023-01-29T22:21:02.485Z,101029.72
2023-01-29T22:23:48.364Z,101039.28
2023-01-29T22:26:34.277Z,101028.06
2023-01-29T22:29:19.740Z,101027.34
2023-01-29T22:32:05.999Z,101010.22
2023-01-29T22:34:51.492Z,101009.28
2023-01-29T22:37:37.779Z,101031.72
2023-01-29T22:40:23.022Z,101012.81
2023-01-29T22:43:08.884Z,100999.19
2023-01-29T22:45:53.870Z,100999.19
2023-01-29T22:48:39.416Z,100992.28
2023-01-29T22:51:24.555Z,100978.59
2023-01-29T22:54:10.450Z,100977.81
2023-01-29T22:56:55.731Z,100970.16
2023-01-29T22:59:41.348Z,100972.81
2023-01-29T23:02:26.428Z,100969.34
2023-01-29T23:05:11.252Z,100971.09
2023-01-29T23:07:56.395Z,100967.66
2023-01-29T23:10:41.293Z,100966.06
2023-01-29T23:13:26.216Z,100958.22
2023-01-29T23:16:12.455Z,100943.91
2023-01-29T23:18:57.457Z,100924.91
2023-01-29T23:21:42.516Z,100913.03
2023-01-29T23:24:27.446Z,100900.22
2023-01-29T23:27:15.641Z,100894.16
2023-01-29T23:30:03.190Z,100875.34
2023-01-29T23:32:48.378Z,100854.81
2023-01-29T23:35:33.513Z,100854.84
2023-01-29T23:38:18.403Z,100831.69
2023-01-29T23:41:03.300Z,100827.44
2023-01-29T23:43:48.667Z,100830.84
2023-01-29T23:46:33.562Z,100817.06
2023-01-29T23:49:19.220Z,100814.53
2023-01-29T23:52:04.235Z,100811.13
2023-01-29T23:54:49.371Z,100801.66
2023-01-29T23:57:34.193Z,100795.69
